Grand Marais, Minnesota
Current Conditions -  °F | °C
As of 10:54 AM on Friday 24 Oct 2014 (Local Time) from KCKC Reporting Station
Haze Haze  
Wind Chill:   Ceiling: 200
Heat Index:   Visibility: 1.7mi
Dew Point:   Wind: 6mph
Humidity: 93%   Direction: 200°SSW
Pressure: 29.85"   Gusts: NA
Location:  47.75°N, 90.33°W
Report Text: KCKC 241554Z AUTO 20005KT 1 3/4SM BR OVC002 08/07 A2985 RMK AO2
Loading
Personal Weather Stations






























Interactive Weather Map New forecast layout! Learn more

10-Day Weather Forecast

Advertisements
Track Severe Weather on mobile